createdAt,value
2022-11-26T00:00:50.735Z,6.34
2022-11-26T00:03:17.328Z,6.40
2022-11-26T00:05:45.658Z,6.42
2022-11-26T00:08:30.458Z,6.32
2022-11-26T00:10:56.749Z,6.30
2022-11-26T00:13:26.595Z,6.35
2022-11-26T00:15:53.002Z,6.34
2022-11-26T00:18:19.186Z,6.24
2022-11-26T00:20:50.161Z,6.27
2022-11-26T00:23:20.120Z,6.32
2022-11-26T00:25:55.635Z,6.32
2022-11-26T00:28:32.581Z,6.32
2022-11-26T00:31:01.481Z,6.39
2022-11-26T00:33:28.605Z,6.35
2022-11-26T00:36:26.704Z,6.38
2022-11-26T00:38:56.150Z,6.29
2022-11-26T00:41:24.011Z,6.23
2022-11-26T00:43:50.309Z,6.24
2022-11-26T00:46:19.216Z,6.26
2022-11-26T00:48:45.680Z,6.26
2022-11-26T00:51:15.922Z,6.14
2022-11-26T00:53:43.429Z,6.17
2022-11-26T00:56:14.944Z,6.21
2022-11-26T00:58:41.252Z,6.08
2022-11-26T01:01:11.753Z,6.20
2022-11-26T01:03:42.115Z,6.14
2022-11-26T01:06:23.227Z,6.12
2022-11-26T01:08:50.087Z,6.09
2022-11-26T01:11:20.526Z,6.15
2022-11-26T01:13:48.503Z,6.15
2022-11-26T01:16:30.863Z,6.08
2022-11-26T01:18:59.623Z,6.23
2022-11-26T01:21:27.644Z,6.18
2022-11-26T01:23:53.486Z,6.16
2022-11-26T01:26:26.800Z,6.11
2022-11-26T01:28:53.244Z,6.05
2022-11-26T01:31:24.786Z,6.12
2022-11-26T01:33:51.788Z,6.15
2022-11-26T01:36:22.493Z,6.15
2022-11-26T01:38:48.373Z,6.12
2022-11-26T01:41:22.773Z,6.17
2022-11-26T01:43:51.263Z,6.16
2022-11-26T01:46:18.687Z,6.09
2022-11-26T01:48:46.880Z,6.05
2022-11-26T01:51:17.423Z,6.15
2022-11-26T01:53:47.495Z,6.20
2022-11-26T01:56:30.588Z,6.02
2022-11-26T01:59:03.987Z,5.98
2022-11-26T02:01:30.124Z,5.96
2022-11-26T02:04:11.149Z,6.01
2022-11-26T02:06:37.290Z,5.92
2022-11-26T02:09:06.353Z,5.87
2022-11-26T02:11:32.378Z,5.94
2022-11-26T02:14:13.645Z,5.87
2022-11-26T02:16:43.190Z,5.87
2022-11-26T02:19:32.360Z,5.85
2022-11-26T02:22:28.719Z,5.94
2022-11-26T02:25:03.434Z,5.97
2022-11-26T02:28:00.092Z,5.97
2022-11-26T02:30:30.598Z,6.04
2022-11-26T02:33:06.040Z,5.99
2022-11-26T02:35:46.037Z,5.99
2022-11-26T02:38:34.799Z,6.03
2022-11-26T02:41:01.074Z,5.98
2022-11-26T02:43:27.827Z,5.98
2022-11-26T02:45:58.002Z,6.06
2022-11-26T02:48:30.082Z,5.93
2022-11-26T02:51:11.715Z,5.89
2022-11-26T02:53:41.233Z,6.00
2022-11-26T02:56:23.767Z,6.03
2022-11-26T02:58:51.701Z,5.96
2022-11-26T03:01:28.590Z,6.04
2022-11-26T03:03:58.409Z,5.98
2022-11-26T03:06:31.639Z,6.01
2022-11-26T03:09:00.095Z,6.01
2022-11-26T03:11:26.864Z,5.96
2022-11-26T03:13:53.042Z,5.97
2022-11-26T03:16:19.152Z,6.14
2022-11-26T03:18:54.676Z,6.01
2022-11-26T03:21:20.394Z,5.96
2022-11-26T03:23:46.796Z,5.99
2022-11-26T03:26:12.948Z,5.92
2022-11-26T03:28:39.535Z,5.98
2022-11-26T03:31:05.533Z,5.95
2022-11-26T03:33:31.648Z,5.98
2022-11-26T03:35:57.410Z,6.03
2022-11-26T03:38:23.247Z,6.10
2022-11-26T03:40:59.932Z,6.01
2022-11-26T03:43:26.051Z,5.94
2022-11-26T03:45:52.018Z,5.93
2022-11-26T03:48:17.842Z,6.07
2022-11-26T03:50:44.139Z,6.01
2022-11-26T03:53:10.093Z,6.21
2022-11-26T03:55:36.063Z,5.91
2022-11-26T03:58:01.877Z,5.80
2022-11-26T04:00:27.727Z,5.93
2022-11-26T04:02:53.587Z,5.94
2022-11-26T04:05:19.465Z,5.85
2022-11-26T04:07:45.342Z,5.76
2022-11-26T04:10:11.937Z,5.68
2022-11-26T04:12:37.784Z,5.61
2022-11-26T04:15:04.002Z,5.61
2022-11-26T04:17:29.789Z,5.75
2022-11-26T04:19:55.582Z,5.56
2022-11-26T04:22:21.385Z,5.51
2022-11-26T04:24:47.206Z,5.46
2022-11-26T04:27:12.972Z,5.49
2022-11-26T04:29:38.876Z,5.58
2022-11-26T04:32:05.227Z,5.65
2022-11-26T04:34:31.296Z,5.81
2022-11-26T04:36:57.136Z,5.78
2022-11-26T04:39:23.122Z,5.86
2022-11-26T04:41:49.235Z,5.73
2022-11-26T04:44:15.191Z,5.64
2022-11-26T04:46:41.042Z,5.63
2022-11-26T04:49:07.048Z,5.67
2022-11-26T04:51:32.929Z,5.65
2022-11-26T04:54:02.757Z,5.72
2022-11-26T04:56:29.189Z,5.62
2022-11-26T04:58:54.966Z,5.48
2022-11-26T05:01:21.108Z,5.62
2022-11-26T05:03:46.915Z,5.63
2022-11-26T05:06:13.550Z,5.62
2022-11-26T05:08:39.743Z,5.65
2022-11-26T05:11:05.727Z,5.59
2022-11-26T05:13:32.037Z,5.68
2022-11-26T05:15:58.136Z,5.51
2022-11-26T05:18:24.688Z,5.61
2022-11-26T05:20:50.701Z,5.42
2022-11-26T05:23:16.532Z,5.47
2022-11-26T05:25:42.373Z,5.45
2022-11-26T05:28:08.259Z,5.49
2022-11-26T05:30:34.453Z,5.51
2022-11-26T05:33:00.312Z,5.60
2022-11-26T05:35:26.113Z,5.62
2022-11-26T05:37:51.944Z,5.66
2022-11-26T05:40:17.881Z,5.73
2022-11-26T05:42:43.785Z,5.50
2022-11-26T05:45:09.845Z,5.63
2022-11-26T05:47:35.612Z,5.51
2022-11-26T05:50:01.764Z,5.52
2022-11-26T05:52:27.591Z,5.51
2022-11-26T05:54:53.402Z,5.58
2022-11-26T05:57:19.818Z,5.53
2022-11-26T05:59:48.442Z,5.52
2022-11-26T06:02:14.481Z,5.63
2022-11-26T06:04:40.619Z,5.61
2022-11-26T06:07:06.748Z,5.49
2022-11-26T06:09:33.053Z,5.62
2022-11-26T06:11:58.827Z,5.46
2022-11-26T06:14:24.674Z,5.50
2022-11-26T06:16:50.636Z,5.39
2022-11-26T06:19:16.583Z,5.31
2022-11-26T06:21:42.468Z,5.36
2022-11-26T06:24:08.413Z,5.26
2022-11-26T06:26:34.268Z,5.25
2022-11-26T06:29:00.151Z,5.20
2022-11-26T06:31:26.130Z,5.30
2022-11-26T06:33:55.717Z,5.41
2022-11-26T06:36:22.496Z,5.18
2022-11-26T06:38:48.480Z,5.22
2022-11-26T06:41:14.469Z,5.38
2022-11-26T06:43:40.342Z,5.44
2022-11-26T06:46:10.555Z,5.46
2022-11-26T06:48:38.500Z,5.46
2022-11-26T06:51:09.027Z,5.51
2022-11-26T06:53:35.024Z,5.51
2022-11-26T06:56:02.202Z,5.33
2022-11-26T06:58:28.016Z,5.24
2022-11-26T07:00:54.212Z,5.38
2022-11-26T07:03:24.280Z,5.50
2022-11-26T07:05:51.396Z,5.47
2022-11-26T07:08:17.363Z,5.37
2022-11-26T07:10:48.854Z,5.30
2022-11-26T07:13:16.206Z,5.26
2022-11-26T07:15:42.630Z,5.45
2022-11-26T07:18:08.781Z,5.43
2022-11-26T07:20:36.624Z,5.44
2022-11-26T07:23:03.897Z,5.51
2022-11-26T07:25:30.455Z,5.42
2022-11-26T07:27:56.727Z,5.40
2022-11-26T07:30:22.725Z,5.46
2022-11-26T07:32:48.567Z,5.52
2022-11-26T07:35:14.448Z,5.57
2022-11-26T07:37:40.209Z,5.67
2022-11-26T07:40:06.851Z,5.51
2022-11-26T07:42:32.964Z,5.45
2022-11-26T07:44:59.171Z,5.40
2022-11-26T07:47:25.662Z,5.43
2022-11-26T07:49:51.647Z,5.52
2022-11-26T07:52:17.425Z,5.37
2022-11-26T07:54:43.211Z,5.39
2022-11-26T07:57:10.104Z,5.39
2022-11-26T07:59:35.909Z,5.43
2022-11-26T08:02:01.742Z,5.36
2022-11-26T08:04:27.566Z,5.49
2022-11-26T08:06:53.422Z,5.57
2022-11-26T08:09:19.322Z,5.62
2022-11-26T08:11:45.041Z,5.47
2022-11-26T08:14:12.179Z,5.32
2022-11-26T08:16:39.072Z,5.30
2022-11-26T08:19:07.808Z,5.30
2022-11-26T08:21:34.344Z,5.39
2022-11-26T08:24:00.220Z,5.27
2022-11-26T08:26:35.091Z,5.31
2022-11-26T08:29:04.634Z,5.37
2022-11-26T08:31:30.452Z,5.43
2022-11-26T08:33:57.871Z,5.31
2022-11-26T08:36:24.124Z,5.16
2022-11-26T08:38:49.924Z,5.05
2022-11-26T08:41:15.766Z,5.12
2022-11-26T08:46:27.504Z,5.25
2022-11-26T08:48:57.401Z,5.30
2022-11-26T08:51:23.551Z,5.33
2022-11-26T08:53:49.331Z,5.33
2022-11-26T08:56:15.351Z,5.34
2022-11-26T08:58:44.295Z,5.15
2022-11-26T09:01:20.793Z,5.14
2022-11-26T09:03:47.932Z,5.18
2022-11-26T09:06:13.832Z,5.30
2022-11-26T09:08:58.491Z,5.33
2022-11-26T09:11:26.762Z,5.50
2022-11-26T09:13:54.049Z,5.30
2022-11-26T09:16:21.894Z,5.44
2022-11-26T09:18:48.323Z,5.34
2022-11-26T09:21:14.186Z,5.39
2022-11-26T09:23:40.071Z,5.50
2022-11-26T09:26:05.865Z,5.38
2022-11-26T09:28:31.701Z,5.22
2022-11-26T09:30:58.185Z,5.29
2022-11-26T09:33:25.171Z,5.21
2022-11-26T09:35:51.014Z,5.31
2022-11-26T09:38:17.145Z,5.49
2022-11-26T09:40:59.613Z,5.35
2022-11-26T09:43:48.280Z,5.39
2022-11-26T09:46:24.429Z,5.57
2022-11-26T09:48:53.021Z,5.78
2022-11-26T09:51:19.823Z,5.70
2022-11-26T09:53:48.391Z,5.78
2022-11-26T09:56:20.662Z,5.73
2022-11-26T09:59:00.950Z,5.75
2022-11-26T10:01:28.346Z,5.77
2022-11-26T10:03:54.358Z,5.89
2022-11-26T10:06:38.631Z,5.97
2022-11-26T10:09:55.961Z,6.15
2022-11-26T10:13:17.303Z,6.73
2022-11-26T10:15:37.875Z,6.78
2022-11-26T10:18:28.295Z,6.98
2022-11-26T10:21:04.680Z,7.29
2022-11-26T10:23:39.709Z,7.29
2022-11-26T10:26:26.612Z,7.39
2022-11-26T10:29:02.960Z,7.38
2022-11-26T10:31:32.569Z,7.43
2022-11-26T10:34:01.843Z,8.08
2022-11-26T10:36:36.927Z,8.47
2022-11-26T10:39:03.019Z,9.75
2022-11-26T10:41:34.536Z,10.23
2022-11-26T10:44:31.475Z,9.58
2022-11-26T10:46:58.336Z,10.07
2022-11-26T10:49:26.281Z,11.70
2022-11-26T10:52:06.836Z,13.32
2022-11-26T10:54:35.798Z,13.51
2022-11-26T10:57:10.311Z,13.16
2022-11-26T10:59:51.234Z,13.99
2022-11-26T11:02:17.094Z,13.08
2022-11-26T11:04:44.900Z,13.48
2022-11-26T11:07:32.603Z,13.59
2022-11-26T11:10:25.585Z,12.84
2022-11-26T11:13:12.688Z,12.37
2022-11-26T11:15:40.761Z,12.89
2022-11-26T11:18:13.007Z,13.33
2022-11-26T11:20:43.158Z,13.69
2022-11-26T11:23:09.291Z,13.34
2022-11-26T11:25:38.953Z,12.88
2022-11-26T11:28:17.578Z,13.93
2022-11-26T11:30:45.227Z,14.00
2022-11-26T11:33:17.845Z,14.82
2022-11-26T11:35:43.699Z,15.59
2022-11-26T11:38:22.644Z,14.49
2022-11-26T11:40:49.057Z,14.06
2022-11-26T11:43:17.345Z,12.80
2022-11-26T11:45:54.311Z,11.90
2022-11-26T11:48:42.782Z,12.55
2022-11-26T11:52:00.613Z,12.67
2022-11-26T11:54:38.931Z,14.23
2022-11-26T11:57:40.382Z,13.89
2022-11-26T12:00:12.678Z,14.92
2022-11-26T12:02:59.010Z,15.63
2022-11-26T12:06:08.653Z,16.78
2022-11-26T12:09:07.902Z,19.00
2022-11-26T12:11:54.536Z,17.87
2022-11-26T12:14:29.384Z,17.74
2022-11-26T12:17:03.032Z,18.01
2022-11-26T12:19:35.086Z,15.93
2022-11-26T12:22:12.531Z,14.67
2022-11-26T12:24:41.531Z,12.98
2022-11-26T12:27:31.270Z,11.56
2022-11-26T12:30:11.942Z,10.91
2022-11-26T12:32:44.215Z,10.81
2022-11-26T12:35:18.840Z,10.61
2022-11-26T12:37:49.501Z,10.40
2022-11-26T12:40:28.751Z,10.03
2022-11-26T12:42:59.161Z,9.77
2022-11-26T12:45:43.135Z,9.36
2022-11-26T12:48:19.945Z,9.41
2022-11-26T12:50:52.092Z,9.68
2022-11-26T12:53:32.883Z,9.78
2022-11-26T12:56:16.173Z,9.30
2022-11-26T12:58:57.001Z,8.99
2022-11-26T13:01:23.581Z,8.81
2022-11-26T13:03:59.535Z,8.68
2022-11-26T13:07:01.004Z,8.55
2022-11-26T13:09:39.157Z,8.34
2022-11-26T13:12:14.538Z,8.51
2022-11-26T13:14:51.649Z,8.31
2022-11-26T13:17:20.756Z,8.24
2022-11-26T13:19:50.233Z,8.30
2022-11-26T13:22:37.897Z,8.16
2022-11-26T13:25:25.411Z,8.29
2022-11-26T13:27:56.920Z,8.11
2022-11-26T13:30:34.603Z,8.09
2022-11-26T13:33:00.424Z,7.91
2022-11-26T13:36:06.452Z,7.82
2022-11-26T13:38:40.463Z,7.84
2022-11-26T13:41:28.314Z,7.73
2022-11-26T13:44:00.459Z,7.55
2022-11-26T13:46:30.357Z,7.48
2022-11-26T13:49:06.210Z,7.28
2022-11-26T13:51:41.062Z,7.03
2022-11-26T13:54:23.205Z,6.97
2022-11-26T13:56:55.342Z,7.02
2022-11-26T13:59:28.367Z,7.00
2022-11-26T14:01:55.125Z,6.87
2022-11-26T14:04:23.944Z,6.93
2022-11-26T14:07:04.788Z,6.74
2022-11-26T14:09:42.778Z,6.98
2022-11-26T14:12:18.967Z,6.86
2022-11-26T14:14:48.127Z,6.55
2022-11-26T14:17:31.281Z,6.45
2022-11-26T14:20:01.005Z,6.50
2022-11-26T14:22:36.999Z,6.36
2022-11-26T14:25:08.909Z,6.39
2022-11-26T14:27:54.880Z,6.22
2022-11-26T14:30:22.065Z,6.45
2022-11-26T14:33:13.247Z,6.29
2022-11-26T14:35:40.417Z,6.16
2022-11-26T14:38:21.484Z,5.99
2022-11-26T14:40:58.940Z,5.80
2022-11-26T14:43:24.806Z,5.84
2022-11-26T14:46:02.741Z,5.52
2022-11-26T14:48:29.922Z,5.68
2022-11-26T14:50:58.481Z,5.64
2022-11-26T14:53:31.079Z,5.54
2022-11-26T14:55:58.134Z,5.43
2022-11-26T14:58:29.734Z,5.41
2022-11-26T15:01:26.775Z,5.46
2022-11-26T15:04:00.086Z,5.38
2022-11-26T15:06:37.478Z,5.35
2022-11-26T15:09:17.474Z,5.19
2022-11-26T15:11:48.568Z,5.29
2022-11-26T15:14:25.374Z,5.20
2022-11-26T15:16:57.987Z,5.02
2022-11-26T15:19:25.066Z,5.02
2022-11-26T15:21:51.414Z,5.06
2022-11-26T15:24:17.636Z,5.09
2022-11-26T15:26:46.598Z,5.11
2022-11-26T15:29:30.245Z,5.05
2022-11-26T15:31:56.193Z,4.92
2022-11-26T15:34:23.945Z,4.86
2022-11-26T15:36:49.763Z,4.79
2022-11-26T15:39:30.908Z,4.79
2022-11-26T15:42:03.603Z,4.69
2022-11-26T15:44:32.043Z,4.65
2022-11-26T15:46:59.895Z,4.58
2022-11-26T15:49:31.686Z,4.53
2022-11-26T15:52:03.567Z,4.64
2022-11-26T15:54:49.532Z,4.64
2022-11-26T15:57:32.349Z,4.70
2022-11-26T16:00:20.465Z,4.70
2022-11-26T16:02:46.373Z,4.67
2022-11-26T16:05:38.699Z,4.67
2022-11-26T16:08:23.289Z,4.68
2022-11-26T16:10:57.487Z,4.57
2022-11-26T16:13:31.495Z,4.55
2022-11-26T16:16:04.481Z,4.53
2022-11-26T16:18:41.717Z,4.44
2022-11-26T16:21:18.023Z,4.37
2022-11-26T16:23:56.562Z,4.61
2022-11-26T16:26:22.899Z,4.53
2022-11-26T16:28:48.753Z,4.56
2022-11-26T16:31:15.944Z,4.42
2022-11-26T16:33:42.613Z,4.46
2022-11-26T16:36:21.138Z,4.48
2022-11-26T16:38:47.976Z,4.32
2022-11-26T16:41:15.683Z,4.43
2022-11-26T16:43:41.794Z,4.36
2022-11-26T16:46:17.743Z,4.34
2022-11-26T16:48:45.689Z,4.29
2022-11-26T16:51:11.789Z,4.21
2022-11-26T16:53:37.942Z,4.26
2022-11-26T16:56:04.655Z,4.33
2022-11-26T16:58:34.148Z,4.36
2022-11-26T17:01:00.148Z,4.40
2022-11-26T17:03:31.814Z,4.38
2022-11-26T17:06:06.277Z,4.33
2022-11-26T17:08:34.238Z,4.32
2022-11-26T17:11:00.426Z,4.45
2022-11-26T17:13:29.005Z,4.40
2022-11-26T17:15:55.867Z,4.41
2022-11-26T17:18:23.879Z,4.32
2022-11-26T17:20:52.585Z,4.25
2022-11-26T17:23:19.285Z,4.27
2022-11-26T17:25:48.380Z,4.20
2022-11-26T17:28:15.314Z,4.23
2022-11-26T17:30:42.812Z,4.14
2022-11-26T17:33:09.610Z,4.24
2022-11-26T17:35:36.358Z,4.33
2022-11-26T17:38:13.801Z,4.20
2022-11-26T17:40:39.771Z,4.23
2022-11-26T17:43:05.624Z,4.38
2022-11-26T17:45:31.578Z,4.31
2022-11-26T17:47:57.506Z,4.35
2022-11-26T17:50:25.952Z,4.21
2022-11-26T17:52:52.519Z,4.27
2022-11-26T17:55:19.343Z,4.19
2022-11-26T17:57:45.275Z,4.20
2022-11-26T18:00:15.028Z,4.30
2022-11-26T18:02:42.813Z,4.33
2022-11-26T18:05:10.374Z,4.39
2022-11-26T18:07:36.901Z,4.22
2022-11-26T18:10:05.307Z,4.13
2022-11-26T18:12:31.421Z,4.22
2022-11-26T18:14:57.451Z,4.25
2022-11-26T18:17:24.171Z,4.24
2022-11-26T18:19:50.366Z,4.13
2022-11-26T18:22:19.933Z,4.15
2022-11-26T18:24:56.107Z,4.02
2022-11-26T18:27:25.813Z,4.00
2022-11-26T18:29:51.704Z,4.02
2022-11-26T18:32:17.795Z,4.03
2022-11-26T18:34:43.842Z,4.11
2022-11-26T18:37:11.386Z,4.04
2022-11-26T18:39:37.658Z,3.91
2022-11-26T18:42:35.349Z,3.92
2022-11-26T18:44:50.369Z,4.02
2022-11-26T18:47:16.350Z,3.81
2022-11-26T18:49:47.603Z,3.83
2022-11-26T18:52:13.731Z,3.71
2022-11-26T18:54:39.545Z,3.91
2022-11-26T18:57:05.286Z,3.84
2022-11-26T18:59:31.138Z,3.83
2022-11-26T19:01:57.008Z,3.71
2022-11-26T19:04:22.806Z,3.69
2022-11-26T19:06:48.624Z,3.60
2022-11-26T19:09:16.743Z,3.53
2022-11-26T19:11:43.941Z,3.59
2022-11-26T19:14:13.152Z,3.69
2022-11-26T19:16:40.456Z,3.58
2022-11-26T19:19:06.552Z,3.64
2022-11-26T19:21:33.337Z,3.58
2022-11-26T19:24:02.418Z,3.52
2022-11-26T19:26:28.819Z,3.56
2022-11-26T19:28:55.193Z,3.53
2022-11-26T19:31:23.247Z,3.65
2022-11-26T19:33:54.714Z,3.57
2022-11-26T19:36:21.467Z,3.58
2022-11-26T19:38:47.736Z,3.58
2022-11-26T19:41:13.889Z,3.57
2022-11-26T19:43:41.236Z,3.59
2022-11-26T19:46:10.109Z,3.54
2022-11-26T19:48:38.365Z,3.55
2022-11-26T19:51:05.442Z,3.48
2022-11-26T19:53:32.343Z,3.64
2022-11-26T19:56:03.407Z,3.64
2022-11-26T19:58:31.413Z,3.52
2022-11-26T20:00:57.512Z,3.54
2022-11-26T20:03:24.406Z,3.56
2022-11-26T20:05:50.618Z,3.52
2022-11-26T20:08:17.289Z,3.66
2022-11-26T20:10:49.581Z,3.65
2022-11-26T20:13:16.105Z,3.64
2022-11-26T20:15:46.739Z,3.69
2022-11-26T20:18:14.689Z,3.70
2022-11-26T20:20:41.217Z,3.69
2022-11-26T20:23:07.352Z,3.68
2022-11-26T20:25:34.652Z,3.74
2022-11-26T20:28:02.299Z,3.69
2022-11-26T20:30:28.330Z,3.58
2022-11-26T20:32:54.594Z,3.55
2022-11-26T20:35:20.824Z,3.63
2022-11-26T20:37:46.703Z,3.67
2022-11-26T20:40:12.897Z,3.69
2022-11-26T20:42:39.304Z,3.72
2022-11-26T20:45:05.899Z,3.73
2022-11-26T20:47:31.772Z,3.68
2022-11-26T20:49:57.702Z,3.70
2022-11-26T20:52:24.263Z,3.72
2022-11-26T20:54:53.678Z,3.78
2022-11-26T20:57:20.873Z,3.78
2022-11-26T20:59:50.212Z,3.82
2022-11-26T21:02:16.128Z,3.76
2022-11-26T21:04:42.145Z,3.78
2022-11-26T21:07:08.022Z,3.93
2022-11-26T21:09:33.862Z,3.91
2022-11-26T21:11:59.682Z,3.78
2022-11-26T21:14:26.588Z,3.93
2022-11-26T21:16:52.527Z,3.92
2022-11-26T21:19:19.110Z,3.83
2022-11-26T21:21:45.373Z,3.93
2022-11-26T21:24:11.665Z,3.97
2022-11-26T21:26:37.870Z,3.89
2022-11-26T21:29:03.979Z,4.00
2022-11-26T21:31:30.786Z,4.05
2022-11-26T21:34:02.253Z,4.07
2022-11-26T21:36:29.726Z,4.09
2022-11-26T21:38:55.698Z,4.09
2022-11-26T21:41:22.340Z,4.02
2022-11-26T21:43:50.232Z,3.86
2022-11-26T21:46:19.491Z,3.84
2022-11-26T21:48:45.485Z,3.85
2022-11-26T21:51:14.408Z,3.80
2022-11-26T21:53:40.654Z,3.76
2022-11-26T21:56:27.699Z,3.70
2022-11-26T21:58:56.315Z,3.76
2022-11-26T22:01:33.999Z,3.71
2022-11-26T22:04:03.752Z,3.70
2022-11-26T22:06:29.780Z,3.63
2022-11-26T22:08:55.764Z,3.53
2022-11-26T22:11:27.246Z,3.53
2022-11-26T22:13:53.734Z,3.47
2022-11-26T22:16:22.139Z,3.40
2022-11-26T22:18:48.856Z,3.49
2022-11-26T22:21:28.703Z,3.52
2022-11-26T22:23:55.160Z,3.48
2022-11-26T22:26:21.752Z,3.37
2022-11-26T22:28:49.053Z,3.49
2022-11-26T22:31:21.636Z,3.43
2022-11-26T22:33:48.397Z,3.47
2022-11-26T22:36:14.378Z,3.41
2022-11-26T22:38:41.086Z,3.34
2022-11-26T22:41:09.865Z,3.31
2022-11-26T22:43:36.451Z,3.25
2022-11-26T22:46:04.442Z,3.19
2022-11-26T22:48:30.352Z,3.21
2022-11-26T22:50:56.271Z,3.26
2022-11-26T22:53:22.429Z,3.18
2022-11-26T22:55:52.541Z,3.21
2022-11-26T22:58:19.232Z,3.11
2022-11-26T23:00:51.099Z,3.07
2022-11-26T23:03:18.547Z,3.09
2022-11-26T23:05:45.113Z,2.95
2022-11-26T23:08:13.812Z,2.99
2022-11-26T23:10:40.542Z,2.99
2022-11-26T23:13:07.861Z,2.92
2022-11-26T23:15:43.079Z,2.83
2022-11-26T23:18:13.124Z,2.94
2022-11-26T23:20:40.054Z,3.10
2022-11-26T23:23:05.986Z,2.86
2022-11-26T23:25:31.830Z,2.84
2022-11-26T23:27:57.929Z,2.84
2022-11-26T23:30:24.031Z,2.81
2022-11-26T23:32:49.869Z,2.82
2022-11-26T23:35:15.835Z,2.79
2022-11-26T23:37:41.624Z,2.82
2022-11-26T23:40:09.726Z,2.82
2022-11-26T23:42:35.556Z,2.70
2022-11-26T23:45:01.603Z,2.60
2022-11-26T23:47:27.669Z,2.71
2022-11-26T23:49:57.182Z,2.65
2022-11-26T23:52:25.503Z,2.56
2022-11-26T23:54:51.362Z,2.65
2022-11-26T23:57:17.200Z,2.73
2022-11-26T23:59:43.004Z,2.61
